Data for 06/08/2015

Time Sea-Level Adjusted Pressure Absolute Pressure Temperature Relative Humidity Dew Point   
(mb) (inHg) (mb) (inHg) (C) (F) (%) (C) (F)
00:05 1021 30.15 850 25.1 16.2 61.2 51 6.2 43.2
00:10 1021 30.15 850 25.1 16 60.7 54 6.6 44
00:15 1021 30.15 850 25.1 15.3 59.6 56 6.6 43.9
00:20 1021 30.15 850 25.1 15.3 59.6 53 5.9 42.6
00:25 1021 30.15 850 25.1 15.4 59.8 54 6.1 43.1
00:30 1021 30.15 850 25.1 15.5 59.8 54 6.2 43.1
00:35 1021 30.15 850 25.1 15.3 59.6 55 6.5 43.8
00:40 1021 30.15 850 25.1 15 59 56 6.5 43.7
00:45 1021 30.15 850 25.1 14.8 58.7 57 6.4 43.6
00:50 1021 30.15 850 25.1 14.7 58.4 57 6.3 43.4
00:55 1021 30.15 850 25.1 14.7 58.5 57 6.2 43.2
01:00 1021 30.15 850 25.1 14.9 58.7 56 6.2 43.2
01:05 1021 30.15 850 25.1 14.9 58.9 56 6.2 43.2
01:10 1021 30.15 850 25.1 15 58.9 55 6.1 43
01:15 1021 30.15 850 25.1 15 59.1 54 5.9 42.7
01:20 1021 30.15 850 25.1 15.5 60 51 5.7 42.2
01:25 1021 30.15 850 25.1 15.6 60.1 52 5.9 42.7
01:30 1021 30.15 850 25.1 15.4 59.7 54 6.3 43.4
01:35 1021 30.15 850 25.1 15.1 59.1 55 6.2 43.2
01:40 1021 30.15 850 25.1 14.9 58.9 56 6.4 43.5
01:45 1021 30.15 850 25.1 14.7 58.5 56 6.2 43.1
01:50 1021 30.15 850 25.1 14.9 58.7 56 6.3 43.3
01:55 1021 30.15 850 25.1 14.7 58.5 57 6.3 43.4
02:00 1021 30.15 850 25.1 14.7 58.4 57 6.2 43.2
02:05 1021 30.15 850 25.1 14.7 58.5 56 6.2 43.2
02:10 1021 30.15 850 25.1 14.9 58.8 56 6.3 43.3
02:15 1021 30.15 850 25.1 14.9 58.8 56 6.4 43.5
02:20 1021 30.15 850 25.1 14.8 58.7 56 6.3 43.4
02:25 1021 30.15 850 25.1 14.9 58.8 56 6.2 43.1
02:30 1021 30.15 850 25.1 15 59 56 6.4 43.6
02:35 1021 30.15 850 25.1 14.9 58.7 57 6.5 43.6
02:40 1021 30.15 850 25.1 14.7 58.4 58 6.5 43.7
02:45 1021 30.15 851 25.13 14.8 58.7 56 6.3 43.4
02:50 1021 30.15 851 25.13 14.9 58.9 56 6.3 43.4
02:55 1021 30.15 851 25.13 15 59.1 56 6.4 43.5
03:00 1021 30.15 851 25.13 15.1 59.1 56 6.4 43.6
03:05 1021 30.15 851 25.13 15.2 59.3 55 6.4 43.5
03:10 1021 30.15 851 25.13 15.2 59.3 56 6.5 43.7
03:15 1021 30.15 851 25.13 15 59 56 6.5 43.7
03:20 1021 30.15 851 25.13 14.9 58.9 57 6.6 43.8
03:25 1021 30.15 851 25.13 14.9 58.8 57 6.5 43.8
03:30 1021 30.15 851 25.13 14.9 58.8 57 6.5 43.8
03:35 1021 30.15 851 25.13 14.8 58.7 58 6.7 44
03:40 1021 30.15 851 25.13 14.7 58.5 59 6.7 44.1
03:45 1022 30.18 851 25.13 14.5 58.1 59 6.8 44.2
03:50 1022 30.18 851 25.13 14.4 58 61 7.1 44.8
03:55 1022 30.18 851 25.13 14.4 57.9 59 6.6 44
04:00 1022 30.18 851 25.13 14.3 57.8 60 6.8 44.2
04:05 1022 30.18 851 25.13 14.2 57.6 61 6.8 44.2
04:10 1022 30.18 851 25.13 14.2 57.5 61 6.8 44.3
04:15 1022 30.18 851 25.13 14 57.2 61 6.8 44.2
04:20 1022 30.18 851 25.13 14 57.2 62 6.8 44.3
04:25 1022 30.18 851 25.13 13.9 57 62 6.8 44.2
04:30 1022 30.18 851 25.13 13.9 57 62 6.8 44.2
04:35 1022 30.18 851 25.13 13.8 56.9 61 6.6 43.9
04:40 1022 30.18 851 25.13 14 57.2 60 6.5 43.8
04:45 1022 30.18 851 25.13 14.2 57.6 60 6.6 43.8
04:50 1022 30.18 851 25.13 14.4 57.8 59 6.6 43.9
04:55 1022 30.18 851 25.13 14.5 58 59 6.7 44.1
05:00 1022 30.18 851 25.13 14.5 58 59 6.6 43.9
05:05 1022 30.18 851 25.13 14.6 58.2 59 6.7 44.1
05:10 1022 30.18 851 25.13 14.6 58.3 58 6.6 43.8
05:15 1022 30.18 851 25.13 14.7 58.4 59 6.8 44.3
05:20 1022 30.18 851 25.13 14.6 58.4 58 6.4 43.6
05:25 1022 30.18 851 25.13 15.1 59.1 57 6.7 44
05:30 1022 30.18 851 25.13 15 59 58 6.9 44.3
05:35 1022 30.18 851 25.13 14.9 58.7 58 6.8 44.2
05:40 1022 30.18 851 25.13 14.9 58.9 58 6.9 44.4
05:45 1022 30.18 851 25.13 14.8 58.6 59 7 44.6
05:50 1022 30.18 851 25.13 14.7 58.5 60 7.1 44.7
05:55 1022 30.18 851 25.13 14.8 58.6 60 7.2 44.9
06:00 1022 30.18 851 25.13 14.8 58.7 59 7.1 44.7
06:05 1022 30.18 851 25.13 15.1 59.1 59 7.2 44.9
06:10 1022 30.18 851 25.13 15.4 59.6 58 7.2 45
06:15 1022 30.18 851 25.13 15.6 60 58 7.4 45.3
06:20 1022 30.18 851 25.13 16 60.7 57 7.6 45.6
06:25 1022 30.18 851 25.13 16.4 61.4 57 7.8 46
06:30 1022 30.18 851 25.13 17.1 62.8 54 7.9 46.2
06:35 1022 30.18 851 25.13 17.5 63.5 53 7.8 46
06:40 1022 30.18 851 25.13 17.7 63.9 53 8.1 46.7
06:45 1022 30.18 851 25.13 18.1 64.5 49 7.4 45.3
06:50 1022 30.18 851 25.13 18.4 65.1 52 8.4 47.1
06:55 1022 30.18 851 25.13 18.7 65.6 48 7.5 45.4
07:00 1022 30.18 851 25.13 18.9 66.1 49 8 46.3
07:05 1022 30.18 851 25.13 19.4 66.8 45 7.3 45.2
07:10 1022 30.18 851 25.13 19.8 67.7 45 7.7 45.8
07:15 1022 30.18 851 25.13 20.6 69 41 6.9 44.4
07:20 1022 30.18 851 25.13 21.1 70 41 7.6 45.6
07:25 1022 30.18 851 25.13 21.2 70.2 42 7.9 46.2
07:30 1022 30.18 851 25.13 21.6 70.9 41 7.9 46.3
07:35 1022 30.18 851 25.13 22 71.5 41 8.5 47.2
07:40 1022 30.18 851 25.13 22 71.6 40 8.1 46.6
07:45 1022 30.18 851 25.13 22.2 71.9 41 8.3 47
07:50 1022 30.18 851 25.13 22.7 72.8 39 8 46.4
07:55 1022 30.18 851 25.13 22.8 73 37 7.5 45.6
08:00 1022 30.18 851 25.13 22.5 72.4 38 7.5 45.5
08:05 1022 30.18 851 25.13 22.9 73.3 37 7.6 45.7
08:10 1022 30.18 851 25.13 23.4 74.1 34 7 44.6
08:15 1022 30.18 851 25.13 23.5 74.3 35 7.5 45.5
08:20 1022 30.18 851 25.13 23.3 73.9 36 7.6 45.6
08:25 1022 30.18 851 25.13 23.1 73.5 39 8.5 47.2
08:30 1022 30.18 851 25.13 23 73.3 38 8.2 46.8
08:35 1022 30.18 851 25.13 22.9 73.2 40 8.8 47.8
08:40 1022 30.18 851 25.13 23 73.4 38 8.2 46.7
08:45 1022 30.18 851 25.13 23 73.4 38 8.3 46.9
08:50 1022 30.18 851 25.13 23.2 73.8 36 7.7 45.8
08:55 1022 30.18 851 25.13 23.5 74.2 33 6.7 44
09:00 1022 30.18 851 25.13 24 75.1 34 7.2 45
09:05 1022 30.18 851 25.13 24.5 76 30 6.2 43.1
09:10 1022 30.18 851 25.13 24.9 76.8 31 7 44.5
09:15 1022 30.18 851 25.13 24.2 75.6 35 7.9 46.2
09:20 1022 30.18 851 25.13 23.3 73.9 34 6.7 44
09:25 1022 30.18 851 25.13 24.2 75.5 32 6.7 44.1
09:30 1022 30.18 851 25.13 24.8 76.6 31 6.9 44.3
09:35 1022 30.18 851 25.13 24.7 76.5 32 7.1 44.8
09:40 1022 30.18 851 25.13 23.6 74.5 35 7.3 45.1
09:45 1022 30.18 851 25.13 23.8 74.8 33 6.6 43.9
09:50 1022 30.18 851 25.13 24.5 76.2 31 6.4 43.5
09:55 1022 30.18 851 25.13 24.9 76.9 32 7.3 45.2
10:00 1022 30.18 851 25.13 24.1 75.3 34 7.4 45.3
10:05 1022 30.18 851 25.13 24.6 76.3 32 7.1 44.7
10:10 1021 30.15 851 25.13 24.9 76.7 32 7.1 44.8
10:15 1021 30.15 851 25.13 25.6 78 31 7.6 45.7
10:20 1021 30.15 851 25.13 25.9 78.7 32 8.1 46.5
10:25 1021 30.15 851 25.13 25.4 77.6 30 6.6 43.9
10:30 1021 30.15 851 25.13 25.7 78.2 31 7.4 45.4
10:35 1021 30.15 850 25.1 25.8 78.4 30 6.9 44.5
10:40 1021 30.15 850 25.1 26.8 80.2 27 6.6 43.9
10:45 1021 30.15 850 25.1 26.6 80 28 7 44.7
10:50 1021 30.15 850 25.1 26.4 79.5 30 7.5 45.5
10:55 1021 30.15 850 25.1 26.2 79.1 28 6.7 44
11:00 1021 30.15 850 25.1 26.3 79.4 30 7.5 45.4
11:05 1021 30.15 850 25.1 25.8 78.5 29 6.9 44.4
11:10 1021 30.15 850 25.1 26.3 79.4 30 7.4 45.3
11:15 1021 30.15 850 25.1 26.4 79.6 29 7.1 44.8
11:20 1021 30.15 850 25.1 26 78.8 29 7.1 44.8
11:25 1021 30.15 850 25.1 26.5 79.7 28 6.8 44.2
11:30 1021 30.15 850 25.1 26.9 80.5 28 7.3 45.2
11:35 1021 30.15 850 25.1 27.3 81.1 29 7.8 46
11:40 1021 30.15 850 25.1 27.5 81.4 27 7.3 45.1
11:45 1021 30.15 850 25.1 27.6 81.6 28 7.9 46.2
11:50 1021 30.15 850 25.1 27 80.7 28 7.4 45.4
11:55 1021 30.15 850 25.1 27.5 81.4 27 7.3 45.1
12:00 1021 30.15 850 25.1 27.6 81.7 28 7.8 46
12:05 1021 30.15 850 25.1 27 80.7 29 7.8 46.1
12:10 1021 30.15 850 25.1 27.6 81.6 27 7.4 45.3
12:15 1020 30.12 850 25.1 27.9 82.2 27 7.4 45.3
12:20 1020 30.12 850 25.1 27.8 82 29 8.3 46.9
12:25 1020 30.12 850 25.1 27.5 81.4 28 7.6 45.7
12:30 1020 30.12 850 25.1 27.8 82 27 7.6 45.7
12:35 1020 30.12 849 25.07 28.6 83.4 26 7.8 46
12:40 1020 30.12 849 25.07 28.5 83.2 26 7.5 45.6
12:45 1020 30.12 849 25.07 28.9 84 25 7 44.6
12:50 1020 30.12 849 25.07 29.1 84.3 27 8.3 46.9
12:55 1020 30.12 849 25.07 28.8 83.8 26 7.5 45.5
13:00 1020 30.12 849 25.07 29.4 84.9 26 8 46.4
13:05 1020 30.12 849 25.07 29.1 84.4 25 7.4 45.3
13:10 1020 30.12 849 25.07 28.8 83.9 26 7.9 46.2
13:15 1020 30.12 849 25.07 28.9 84 27 8.1 46.6
13:20 1020 30.12 849 25.07 29.1 84.3 26 7.9 46.2
13:25 1020 30.12 849 25.07 29.7 85.4 26 8.3 46.9
13:30 1020 30.12 849 25.07 29.5 85 27 8.7 47.6
13:35 1020 30.12 849 25.07 29.5 85.1 26 8.5 47.4
13:40 1020 30.12 849 25.07 29.1 84.4 26 8.2 46.7
13:45 1020 30.12 849 25.07 29.1 84.4 25 7.6 45.7
13:50 1020 30.12 849 25.07 29.2 84.5 27 8.7 47.6
13:55 1020 30.12 849 25.07 28.9 83.9 28 8.6 47.4
14:00 1020 30.12 849 25.07 29 84.1 26 7.9 46.2
14:05 1020 30.12 849 25.07 29.2 84.6 27 8.4 47.1
14:10 1020 30.12 849 25.07 29.3 84.7 26 8 46.4
14:15 1019 30.09 849 25.07 29.1 84.4 26 8 46.4
14:20 1019 30.09 849 25.07 29.3 84.8 26 8.1 46.6
14:25 1019 30.09 849 25.07 30.3 86.6 25 8.5 47.2
14:30 1019 30.09 849 25.07 30.2 86.4 24 7.9 46.2
14:35 1019 30.09 848 25.04 29.9 85.9 25 8.2 46.8
14:40 1019 30.09 848 25.04 29.9 85.9 25 8.4 47.1
14:45 1019 30.09 848 25.04 28.9 83.9 26 8 46.4
14:50 1019 30.09 848 25.04 29.1 84.3 27 8.4 47.2
14:55 1019 30.09 848 25.04 29.7 85.4 25 7.7 45.9
15:00 1019 30.09 848 25.04 30.5 86.9 24 7.8 46
15:05 1019 30.09 848 25.04 30.7 87.2 22 7 44.6
15:10 1019 30.09 848 25.04 30.4 86.6 22 6.8 44.3
15:15 1019 30.09 848 25.04 30.9 87.6 22 6.8 44.2
15:20 1019 30.09 848 25.04 30.9 87.5 22 7.1 44.8
15:25 1019 30.09 848 25.04 30.7 87.3 23 7.6 45.7
15:30 1019 30.09 848 25.04 31 87.7 22 7.2 44.9
15:35 1019 30.09 848 25.04 31.5 88.8 21 7.3 45.1
15:40 1019 30.09 848 25.04 31 87.9 23 7.8 46
15:45 1019 30.09 848 25.04 30.4 86.7 23 7.2 45
15:50 1019 30.09 848 25.04 30.3 86.5 23 7.4 45.3
15:55 1019 30.09 848 25.04 30.5 86.9 23 7.5 45.6
16:00 1019 30.09 848 25.04 30.6 87.1 23 7.7 45.9
16:05 1019 30.09 848 25.04 30.6 87.1 22 6.9 44.5
16:10 1019 30.09 848 25.04 30.5 86.9 23 7.1 44.8
16:15 1019 30.09 848 25.04 30.6 87 23 7.2 44.9
16:20 1019 30.09 848 25.04 30.9 87.6 22 7.3 45.1
16:25 1019 30.09 848 25.04 31 87.7 23 7.5 45.6
16:30 1019 30.09 848 25.04 31.5 88.6 21 7.2 45
16:35 1018 30.06 848 25.04 31.3 88.3 22 7.2 45
16:40 1018 30.06 848 25.04 30.5 86.9 23 7.5 45.5
16:45 1018 30.06 848 25.04 31 87.8 22 7.1 44.8
16:50 1018 30.06 848 25.04 30.9 87.5 22 7.2 45
16:55 1018 30.06 847 25.01 31 87.8 21 6.5 43.7
17:00 1018 30.06 847 25.01 31.3 88.3 22 7.2 45
17:05 1018 30.06 847 25.01 31.1 88 23 7.7 45.9
17:10 1018 30.06 847 25.01 31 87.7 21 6.3 43.3
17:15 1018 30.06 847 25.01 30.7 87.2 20 5.3 41.5
17:20 1018 30.06 847 25.01 30.6 87.1 21 6.4 43.6
17:25 1018 30.06 847 25.01 30.9 87.6 19 5 41
17:30 1018 30.06 847 25.01 31.2 88.1 21 6.9 44.4
17:35 1018 30.06 847 25.01 31 87.8 21 6.8 44.3
17:40 1018 30.06 847 25.01 30.9 87.5 20 5.7 42.2
17:45 1018 30.06 847 25.01 30.9 87.6 20 5.5 41.9
17:50 1018 30.06 847 25.01 30.7 87.3 22 6.8 44.2
17:55 1018 30.06 847 25.01 30.5 86.8 20 5.5 41.8
18:00 1018 30.06 847 25.01 30.6 87.1 21 5.8 42.5
18:05 1018 30.06 847 25.01 30.4 86.6 20 5.3 41.6
18:10 1018 30.06 847 25.01 30.6 87 19 4.9 40.9
18:15 1018 30.06 847 25.01 30 86 21 5.6 42
18:20 1018 30.06 847 25.01 29.5 85 24 6.9 44.4
18:25 1018 30.06 847 25.01 29.5 85 22 5.8 42.4
18:30 1018 30.06 847 25.01 29.2 84.6 23 6.6 43.9
18:35 1018 30.06 847 25.01 29 84.1 24 6.7 44
18:40 1018 30.06 847 25.01 28.7 83.7 26 7.7 45.8
18:45 1018 30.06 847 25.01 28.4 83.1 27 7.9 46.3
18:50 1018 30.06 847 25.01 28.3 83 26 7.6 45.6
18:55 1018 30.06 847 25.01 28.4 83.1 25 6.7 44
19:00 1018 30.06 847 25.01 28.4 83.1 26 7.6 45.7
19:05 1018 30.06 847 25.01 28 82.5 31 9.4 48.9
19:10 1018 30.06 847 25.01 27.9 82.2 30 8.9 48.1
19:15 1018 30.06 847 25.01 27.9 82.1 31 9.5 49.1
19:20 1018 30.06 847 25.01 27.8 82 31 9.3 48.7
19:25 1018 30.06 847 25.01 27.8 82 31 9.2 48.6
19:30 1018 30.06 847 25.01 27.7 81.9 28 7.6 45.8
19:35 1018 30.06 847 25.01 27.7 81.8 28 8 46.4
19:40 1018 30.06 847 25.01 27.6 81.6 33 9.9 49.9
19:45 1018 30.06 847 25.01 27.2 80.9 34 10.3 50.6
19:50 1018 30.06 847 25.01 26.6 79.8 35 10 50
19:55 1018 30.06 847 25.01 26.1 79 34 9.4 49
20:00 1018 30.06 847 25.01 25.9 78.6 34 8.8 47.9
20:05 1018 30.06 847 25.01 25.5 77.8 34 8.6 47.5
20:10 1018 30.06 847 25.01 25.1 77.1 33 7.9 46.2
20:15 1018 30.06 847 25.01 24.6 76.3 36 9 48.1
20:20 1018 30.06 847 25.01 24.2 75.6 33 7 44.5
20:25 1018 30.06 847 25.01 23.9 74.9 33 7 44.6
20:30 1018 30.06 847 25.01 23.6 74.5 33 6.8 44.2
20:35 1018 30.06 847 25.01 23.4 74.1 35 7.2 45
20:40 1018 30.06 847 25.01 23.2 73.7 37 7.7 45.9
20:45 1018 30.06 847 25.01 22.7 72.8 40 8.7 47.7
20:50 1018 30.06 847 25.01 21.8 71.3 41 8.3 47
20:55 1018 30.06 847 25.01 21.2 70.1 41 7.6 45.7
21:00 1018 30.06 847 25.01 21.3 70.3 37 6.3 43.3
21:05 1018 30.06 847 25.01 21.7 71.1 36 6.3 43.4
21:10 1018 30.06 847 25.01 21.9 71.4 34 5.5 41.9
21:15 1018 30.06 847 25.01 21.9 71.4 35 6.1 42.9
21:20 1018 30.06 847 25.01 21.9 71.5 36 6.5 43.7
21:25 1018 30.06 847 25.01 21.8 71.3 36 6.4 43.5
21:30 1018 30.06 847 25.01 21.7 71.1 38 7 44.6
21:35 1018 30.06 847 25.01 21.4 70.5 39 7.2 45
21:40 1018 30.06 847 25.01 21.3 70.4 40 7.4 45.2
21:45 1018 30.06 847 25.01 21.2 70.1 40 7.3 45.1
21:50 1018 30.06 848 25.04 21.1 70 39 6.8 44.3
21:55 1018 30.06 848 25.04 21.2 70.2 39 6.8 44.2
22:00 1018 30.06 848 25.04 21.2 70.1 39 6.9 44.4
22:05 1018 30.06 848 25.04 20.9 69.6 41 7.3 45.1
22:10 1018 30.06 848 25.04 20.8 69.4 41 7.2 45
22:15 1018 30.06 848 25.04 20.7 69.3 41 7.2 44.9
22:20 1019 30.09 848 25.04 20.8 69.4 42 7.4 45.3
22:25 1019 30.09 848 25.04 20.6 69.1 42 7.3 45.1
22:30 1019 30.09 848 25.04 20.5 69 43 7.5 45.6
22:35 1019 30.09 848 25.04 20.3 68.5 43 7.3 45.2
22:40 1019 30.09 848 25.04 20.2 68.3 44 7.5 45.5
22:45 1019 30.09 848 25.04 20.2 68.3 42 6.8 44.3
22:50 1019 30.09 848 25.04 20.3 68.5 45 7.9 46.3
22:55 1019 30.09 848 25.04 20 68 45 7.9 46.3
23:00 1019 30.09 848 25.04 19.8 67.6 44 7.4 45.3
23:05 1019 30.09 848 25.04 19.8 67.6 48 8.5 47.2
23:10 1019 30.09 848 25.04 19.6 67.3 45 7.6 45.7
23:15 1019 30.09 848 25.04 19.7 67.4 46 8 46.3
23:20 1019 30.09 848 25.04 19.7 67.4 50 9.1 48.3
23:25 1019 30.09 848 25.04 19.4 67 46 7.7 45.8
23:30 1019 30.09 848 25.04 19.2 66.6 46 7.6 45.7
23:35 1019 30.09 848 25.04 18.9 66.1 47 7.6 45.7
23:40 1019 30.09 848 25.04 18.8 65.9 47 7.4 45.3
23:45 1019 30.09 848 25.04 18.9 66.1 47 7.6 45.7
23:50 1019 30.09 848 25.04 19.2 66.5 46 7.4 45.4
23:55 1019 30.09 848 25.04 19.1 66.3 47 7.5 45.5
24:00 1019 30.09 848 25.04 18.4 65.1 50 8 46.4